Terminal Aerodrome Forecast
Issued by NWS

Current Version | Previous Version | Text Only | Print | Product List | Glossary Off
Versions: 1 2 3 4 5 6 7 8 9 10 11 12 13 14 15 16 17 18 19

000
FTUS41 KPBZ 231738
TAFHLG
TAF
KHLG 231738Z 2318/2418 25012G20KT 1SM SHRA VCTS BKN009CB
     FM231830 27012G18KT 5SM SHRA VCTS OVC012CB
     FM240000 27010KT 3SM SHRA BR OVC012
     FM240400 26008KT P6SM VCSH OVC006
     FM241000 29008KT 3SM BR OVC004=

USA.gov is the U.S. government's official web portal to all federal, state and local government web resources and services.